Sunflower Cobalt — JI3646 — position and weather

sailwx.info

Track history (hours):
 
Tides and Currents Weather Stations Pressure Air Temp Water Temp Dewpoint Dewpoint Depression Visibility Wind Speed Wind Dir Waves Ship Positions

Sunflower Cobalt

Last reported at 2018-May-22 21:30 UTC. Time now 2018-May-22 21:40 UTC.
Position N 34°38' E 135°24'.

Length 146 m; draft 5.6 m.

Type: Passenger vessel. MMSI: 431300775.

Date/timePositionNaut miles runAvg speedWind from/ knotsBaromVisibWave heightAir tempDewpointWater temp
2018-May-22 21:30N 34°38' E 135°24'815.4
2018-May-22 21:01N 34°35' E 135°16'1019.9
2018-May-22 20:30N 34°35' E 135°03'917.5
2018-May-22 20:00N 34°34' E 134°53'1019.6
2018-May-22 19:31N 34°30' E 134°42'1121.1
2018-May-22 19:00N 34°26' E 134°30'1220.6
2018-May-22 18:27N 34°24' E 134°17'12 0.4
2018-May-21 13:43N 34°27' E 134°03'821.6
2018-May-21 13:22N 34°25' E 134°12'721.2
2018-May-21 13:01N 34°25' E 134°21'1121.1
2018-May-21 12:31N 34°29' E 134°33'1121.1
2018-May-21 12:01N 34°33' E 134°45'1020.6
2018-May-21 11:30N 34°37' E 134°56'918.4
2018-May-21 11:01N 34°36' E 135°07'1020.4
2018-May-21 10:31N 34°37' E 135°20'4 8.4
2018-May-21 10:00N 34°38' E 135°25'0 0.1
2018-May-21 09:19N 34°38' E 135°25'0 0.1
2018-May-21 08:55N 34°38' E 135°25'0 0.1
2018-May-21 08:25N 34°38' E 135°25'0 0.1
2018-May-21 07:49N 34°38' E 135°25'0 0.0
2018-May-21 07:25N 34°38' E 135°25'0 0.0
2018-May-21 06:55N 34°38' E 135°25'0 0.0
2018-May-21 06:25N 34°38' E 135°25'0 0.0
2018-May-21 05:55N 34°38' E 135°25'0 0.0
2018-May-21 05:25N 34°38' E 135°25'0 0.0
2018-May-21 04:55N 34°38' E 135°25'0 0.0
2018-May-21 04:19N 34°38' E 135°25'0 0.0
2018-May-21 03:52N 34°38' E 135°25'0 0.0
2018-May-21 03:28N 34°38' E 135°25'0 0.0
2018-May-21 02:58N 34°38' E 135°25'0 0.1
2018-May-21 02:25N 34°38' E 135°25'0 0.0
2018-May-21 01:58N 34°38' E 135°25'0 0.1
2018-May-21 01:28N 34°38' E 135°25'0 0.0
2018-May-21 00:55N 34°38' E 135°25'0 0.0
2018-May-21 00:25N 34°38' E 135°25'0 0.1
2018-May-20 23:55N 34°38' E 135°25'0 0.1
2018-May-20 23:19N 34°38' E 135°25'0 0.1
2018-May-20 22:55N 34°38' E 135°25'0 0.0
2018-May-20 22:19N 34°38' E 135°25'0 0.0
2018-May-20 21:55N 34°38' E 135°25'0 0.0
2018-May-20 21:30N 34°38' E 135°25'3 7.0
2018-May-20 21:01N 34°37' E 135°21'918.2
2018-May-20 20:30N 34°34' E 135°10'1020.4
2018-May-20 20:00N 34°37' E 134°58'1019.9
2018-May-20 19:31N 34°33' E 134°47'1019.9
2018-May-20 19:01N 34°29' E 134°36'1020.4
2018-May-20 18:31N 34°25' E 134°25'1019.2
2018-May-20 17:59N 34°24' E 134°12'1 0.0
2018-May-19 14:01N 34°25' E 134°11'121.9
2018-May-19 13:58N 34°25' E 134°13'1021.0
2018-May-19 13:30N 34°26' E 134°24'1020.8
2018-May-19 13:00N 34°29' E 134°36'1121.6
2018-May-19 12:30N 34°33' E 134°48'1122.6
2018-May-19 12:00N 34°37' E 135°01'1019.7
2018-May-19 11:30N 34°36' E 135°13'918.6
2018-May-19 11:00N 34°38' E 135°24'1 1.8
2018-May-19 10:30N 34°38' E 135°25'0 0.1
2018-May-19 09:56N 34°38' E 135°25'0 0.1
2018-May-19 09:26N 34°38' E 135°25'0 0.0
2018-May-19 08:57N 34°38' E 135°25'0 0.0
2018-May-19 08:08N 34°38' E 135°25'0 0.0
2018-May-19 07:44N 34°38' E 135°25'0 0.0
2018-May-19 07:21N 34°38' E 135°25'0 0.0
2018-May-19 06:56N 34°38' E 135°25'0 0.0
2018-May-19 06:26N 34°38' E 135°25'0 0.0
2018-May-19 05:50N 34°38' E 135°25'0 0.0
2018-May-19 05:21N 34°38' E 135°25'0 0.0
2018-May-19 04:57N 34°38' E 135°25'0 0.0
2018-May-19 04:20N 34°38' E 135°25'0 0.0
2018-May-19 03:56N 34°38' E 135°25'0 0.0
2018-May-19 03:27N 34°38' E 135°25'0 0.0
2018-May-19 02:45N 34°38' E 135°25'0 0.2
2018-May-19 02:27N 34°38' E 135°25'0 0.1
2018-May-19 01:57N 34°38' E 135°25'0 0.0
2018-May-19 01:20N 34°38' E 135°25'0 0.0
2018-May-19 00:56N 34°38' E 135°25'0 0.0
2018-May-19 00:27N 34°38' E 135°25'0 0.0
2018-May-18 23:56N 34°38' E 135°25'0 0.0
2018-May-18 23:26N 34°38' E 135°25'0 0.0
2018-May-18 22:56N 34°38' E 135°25'0 0.0
2018-May-18 22:30N 34°38' E 135°25'5 9.5
2018-May-18 22:00N 34°36' E 135°20'816.4
2018-May-18 21:30N 34°34' E 135°10'918.6
2018-May-18 21:00N 34°37' E 134°59'919.1
2018-May-18 20:30N 34°33' E 134°49'917.9
2018-May-18 20:00N 34°29' E 134°39'918.3
2018-May-18 19:30N 34°25' E 134°29'918.3
2018-May-18 19:00N 34°24' E 134°18'18 0.6
2018-May-17 13:59N 34°25' E 133°56'1316.7
2018-May-17 13:12N 34°25' E 134°12'420.1
2018-May-17 13:00N 34°24' E 134°16'1020.5
2018-May-17 12:31N 34°27' E 134°28'1020.6
2018-May-17 12:01N 34°31' E 134°40'1122.6
2018-May-17 11:31N 34°35' E 134°53'1121.2
2018-May-17 11:00N 34°36' E 135°05'1020.0
2018-May-17 10:30N 34°37' E 135°18'612.0
2018-May-17 10:00N 34°38' E 135°25'0 0.0
2018-May-17 09:28N 34°38' E 135°25'0 0.0
2018-May-17 08:58N 34°38' E 135°25'0 0.0
2018-May-17 08:10N 34°38' E 135°25'0 0.0
2018-May-17 07:58N 34°38' E 135°25'0 0.0
2018-May-17 07:28N 34°38' E 135°25'0 0.0
2018-May-17 06:52N 34°38' E 135°25'0 0.0
2018-May-17 06:28N 34°38' E 135°25'0 0.0
2018-May-17 05:55N 34°38' E 135°25'0 0.0
2018-May-17 05:10N 34°38' E 135°25'0 0.0
2018-May-17 04:58N 34°38' E 135°25'0 0.0
2018-May-17 04:28N 34°38' E 135°25'0 0.0
2018-May-17 03:58N 34°38' E 135°25'0 0.0
2018-May-17 03:28N 34°38' E 135°25'0 0.0
2018-May-17 02:58N 34°38' E 135°25'0 0.1
2018-May-17 02:28N 34°38' E 135°25'0 0.1
2018-May-17 01:58N 34°38' E 135°25'0 0.0
2018-May-17 01:28N 34°38' E 135°25'0 0.0
2018-May-17 00:52N 34°38' E 135°25'0 0.0
2018-May-17 00:28N 34°38' E 135°25'0 0.1
2018-May-16 23:58N 34°38' E 135°25'0 0.0
2018-May-16 23:28N 34°38' E 135°25'0 0.0
2018-May-16 22:58N 34°38' E 135°25'0 0.0
2018-May-16 22:04N 34°38' E 135°25'0 0.0
2018-May-16 21:58N 34°38' E 135°25'0 0.0
2018-May-16 21:29N 34°38' E 135°25'4 8.2
2018-May-16 21:00N 34°36' E 135°21'918.4
2018-May-16 20:30N 34°34' E 135°10'917.7
2018-May-16 20:00N 34°37' E 134°59'1019.4
2018-May-16 19:30N 34°33' E 134°49'1019.4
2018-May-16 19:00N 34°29' E 134°38'1120.5
2018-May-16 18:29N 34°25' E 134°26'1020.3
2018-May-16 18:00N 34°24' E 134°14'17 0.6
2018-May-15 14:17N 34°24' E 133°53'413.2
2018-May-15 13:59N 34°25' E 133°58'714.1
2018-May-15 13:30N 34°27' E 134°06'918.3
2018-May-15 13:00N 34°24' E 134°16'1020.7
2018-May-15 12:30N 34°27' E 134°28'1020.8
2018-May-15 12:00N 34°31' E 134°40'1122.6
2018-May-15 11:30N 34°36' E 134°52'1122.2
2018-May-15 11:00N 34°36' E 135°06'1020.3
2018-May-15 10:31N 34°37' E 135°18'611.3
2018-May-15 10:00N 34°38' E 135°25'0 0.0
2018-May-15 09:30N 34°38' E 135°25'0 0.0
2018-May-15 09:00N 34°38' E 135°25'0 0.0
2018-May-15 08:30N 34°38' E 135°25'0 0.0
2018-May-15 08:00N 34°38' E 135°25'0 0.0
2018-May-15 07:30N 34°38' E 135°25'0 0.0
2018-May-15 07:00N 34°38' E 135°25'0 0.0
2018-May-15 06:30N 34°38' E 135°25'0 0.0
2018-May-15 06:00N 34°38' E 135°25'0 0.0
2018-May-15 05:30N 34°38' E 135°25'1 1.8
2018-May-15 05:00N 34°38' E 135°24'2 3.4
2018-May-15 04:29N 34°37' E 135°22'0 0.1
2018-May-15 03:59N 34°37' E 135°22'0 0.1
2018-May-15 03:29N 34°37' E 135°22'0 0.0
2018-May-15 02:59N 34°37' E 135°22'0 0.0
2018-May-15 02:29N 34°37' E 135°22'0 0.0
2018-May-15 01:59N 34°37' E 135°22'0 0.0
2018-May-15 01:29N 34°37' E 135°22'0 0.0
2018-May-15 00:59N 34°37' E 135°22'0 0.1
2018-May-15 00:30N 34°37' E 135°22'3 5.4
2018-May-15 00:00N 34°38' E 135°25'0 0.0
2018-May-14 23:30N 34°38' E 135°25'0 0.0
2018-May-14 23:00N 34°38' E 135°25'0 0.0
2018-May-14 22:30N 34°38' E 135°25'0 0.0
2018-May-14 22:00N 34°38' E 135°25'0 0.0
2018-May-14 21:30N 34°38' E 135°25'3 6.7
2018-May-14 21:00N 34°37' E 135°21'919.1
2018-May-14 20:31N 34°35' E 135°10'1019.0
2018-May-14 20:00N 34°37' E 134°59'1019.9
2018-May-14 19:30N 34°33' E 134°48'1020.1
2018-May-14 19:00N 34°29' E 134°37'1020.7
2018-May-14 18:30N 34°25' E 134°25'1020.9
2018-May-14 18:00N 34°24' E 134°12'1217.0
2018-May-14 17:19N 34°25' E 133°58'4318.7
2018-May-14 15:03N 34°09' E 133°10'320.1
2018-May-14 14:54N 34°08' E 133°07'714.3
2018-May-14 14:26N 34°07' E 132°59'511.9
2018-May-14 13:59N 34°07' E 132°53'1020.9
2018-May-14 13:30N 33°59' E 132°45'1020.9
2018-May-14 13:00N 33°52' E 132°36'1121.0
2018-May-14 12:30N 33°46' E 132°25'1021.3
2018-May-14 12:00N 33°40' E 132°15'1121.3
2018-May-14 11:29N 33°34' E 132°04'1021.1
2018-May-14 11:00N 33°28' E 131°54'1121.3
2018-May-14 10:30N 33°21' E 131°44'919.2
2018-May-14 10:01N 33°18' E 131°33'2 0.2
2018-May-13 21:44N 33°18' E 131°30'2 9.0
2018-May-13 21:30N 33°19' E 131°33'1019.9
2018-May-13 21:00N 33°21' E 131°44'1019.4
2018-May-13 20:30N 33°27' E 131°53'1019.6
2018-May-13 19:59N 33°32' E 132°03'1020.2
2018-May-13 19:29N 33°38' E 132°13'1019.8
2018-May-13 18:58N 33°44' E 132°23'919.7
2018-May-13 18:30N 33°50' E 132°32'1020.1
2018-May-13 18:00N 33°57' E 132°41'7317.0
2018-May-13 13:44N 34°26' E 134°01'716.3
2018-May-13 13:20N 34°26' E 134°09'919.4
2018-May-13 12:53N 34°25' E 134°19'820.5
2018-May-13 12:30N 34°27' E 134°28'1020.8
2018-May-13 12:00N 34°31' E 134°40'1121.9
2018-May-13 11:31N 34°35' E 134°52'1121.2
2018-May-13 11:00N 34°36' E 135°05'1020.8
2018-May-13 10:30N 34°37' E 135°18'611.6
2018-May-13 10:00N 34°38' E 135°25'0 0.0
2018-May-13 09:27N 34°38' E 135°25'0 0.0
2018-May-13 09:00N 34°38' E 135°25'0 0.0
2018-May-13 08:30N 34°38' E 135°25'0 0.0
2018-May-13 08:00N 34°38' E 135°25'0 0.0
2018-May-13 07:30N 34°38' E 135°25'0 0.0
2018-May-13 07:00N 34°38' E 135°25'0 0.0
2018-May-13 06:30N 34°38' E 135°25'0 0.0
2018-May-13 06:00N 34°38' E 135°25'0 0.0
2018-May-13 05:30N 34°38' E 135°25'0 0.0
2018-May-13 05:00N 34°38' E 135°25'0 0.0
2018-May-13 04:27N 34°38' E 135°25'0 0.0
2018-May-13 04:00N 34°38' E 135°25'0 0.0
2018-May-13 03:30N 34°38' E 135°25'0 0.0
2018-May-13 02:57N 34°38' E 135°25'0 0.0
2018-May-13 02:30N 34°38' E 135°25'0 0.0
2018-May-13 02:00N 34°38' E 135°25'0 0.0
2018-May-13 01:30N 34°38' E 135°25'0 0.0
2018-May-13 01:00N 34°38' E 135°25'0 0.0
2018-May-13 00:27N 34°38' E 135°25'0 0.0
2018-May-13 00:00N 34°38' E 135°25'0 0.0
2018-May-12 23:30N 34°38' E 135°25'0 0.0
2018-May-12 23:00N 34°38' E 135°25'0 0.3
2018-May-12 22:30N 34°38' E 135°25'714.9
2018-May-12 22:00N 34°35' E 135°16'1019.8
2018-May-12 21:30N 34°35' E 135°04'  
Track history (hours):
 
Tides and Currents Weather Stations Pressure Air Temp Water Temp Dewpoint Dewpoint Depression Visibility Wind Speed Wind Dir Waves Ship Positions

Sunflower Cobalt

Last reported at 2018-May-22 21:30 UTC. Time now 2018-May-22 21:40 UTC.
Position N 34°38' E 135°24'.

Length 146 m; draft 5.6 m.

Type: Passenger vessel. MMSI: 431300775.

Date/timePositionNaut miles runAvg speedWind from/ knotsBaromVisibWave heightAir tempDewpointWater temp
2018-May-22 21:30N 34°38' E 135°24'815.4
2018-May-22 21:01N 34°35' E 135°16'1019.9
2018-May-22 20:30N 34°35' E 135°03'917.5
2018-May-22 20:00N 34°34' E 134°53'1019.6
2018-May-22 19:31N 34°30' E 134°42'1121.1
2018-May-22 19:00N 34°26' E 134°30'1220.6
2018-May-22 18:27N 34°24' E 134°17'12 0.4
2018-May-21 13:43N 34°27' E 134°03'821.6
2018-May-21 13:22N 34°25' E 134°12'721.2
2018-May-21 13:01N 34°25' E 134°21'1121.1
2018-May-21 12:31N 34°29' E 134°33'1121.1
2018-May-21 12:01N 34°33' E 134°45'1020.6
2018-May-21 11:30N 34°37' E 134°56'918.4
2018-May-21 11:01N 34°36' E 135°07'1020.4
2018-May-21 10:31N 34°37' E 135°20'4 8.4
2018-May-21 10:00N 34°38' E 135°25'0 0.1
2018-May-21 09:19N 34°38' E 135°25'0 0.1
2018-May-21 08:55N 34°38' E 135°25'0 0.1
2018-May-21 08:25N 34°38' E 135°25'0 0.1
2018-May-21 07:49N 34°38' E 135°25'0 0.0
2018-May-21 07:25N 34°38' E 135°25'0 0.0
2018-May-21 06:55N 34°38' E 135°25'0 0.0
2018-May-21 06:25N 34°38' E 135°25'0 0.0
2018-May-21 05:55N 34°38' E 135°25'0 0.0
2018-May-21 05:25N 34°38' E 135°25'0 0.0
2018-May-21 04:55N 34°38' E 135°25'0 0.0
2018-May-21 04:19N 34°38' E 135°25'0 0.0
2018-May-21 03:52N 34°38' E 135°25'0 0.0
2018-May-21 03:28N 34°38' E 135°25'0 0.0
2018-May-21 02:58N 34°38' E 135°25'0 0.1
2018-May-21 02:25N 34°38' E 135°25'0 0.0
2018-May-21 01:58N 34°38' E 135°25'0 0.1
2018-May-21 01:28N 34°38' E 135°25'0 0.0
2018-May-21 00:55N 34°38' E 135°25'0 0.0
2018-May-21 00:25N 34°38' E 135°25'0 0.1
2018-May-20 23:55N 34°38' E 135°25'0 0.1
2018-May-20 23:19N 34°38' E 135°25'0 0.1
2018-May-20 22:55N 34°38' E 135°25'0 0.0
2018-May-20 22:19N 34°38' E 135°25'0 0.0
2018-May-20 21:55N 34°38' E 135°25'0 0.0
2018-May-20 21:30N 34°38' E 135°25'3 7.0
2018-May-20 21:01N 34°37' E 135°21'918.2
2018-May-20 20:30N 34°34' E 135°10'1020.4
2018-May-20 20:00N 34°37' E 134°58'1019.9
2018-May-20 19:31N 34°33' E 134°47'1019.9
2018-May-20 19:01N 34°29' E 134°36'1020.4
2018-May-20 18:31N 34°25' E 134°25'1019.2
2018-May-20 17:59N 34°24' E 134°12'1 0.0
2018-May-19 14:01N 34°25' E 134°11'121.9
2018-May-19 13:58N 34°25' E 134°13'1021.0
2018-May-19 13:30N 34°26' E 134°24'1020.8
2018-May-19 13:00N 34°29' E 134°36'1121.6
2018-May-19 12:30N 34°33' E 134°48'1122.6
2018-May-19 12:00N 34°37' E 135°01'1019.7
2018-May-19 11:30N 34°36' E 135°13'918.6
2018-May-19 11:00N 34°38' E 135°24'1 1.8
2018-May-19 10:30N 34°38' E 135°25'0 0.1
2018-May-19 09:56N 34°38' E 135°25'0 0.1
2018-May-19 09:26N 34°38' E 135°25'0 0.0
2018-May-19 08:57N 34°38' E 135°25'0 0.0
2018-May-19 08:08N 34°38' E 135°25'0 0.0
2018-May-19 07:44N 34°38' E 135°25'0 0.0
2018-May-19 07:21N 34°38' E 135°25'0 0.0
2018-May-19 06:56N 34°38' E 135°25'0 0.0
2018-May-19 06:26N 34°38' E 135°25'0 0.0
2018-May-19 05:50N 34°38' E 135°25'0 0.0
2018-May-19 05:21N 34°38' E 135°25'0 0.0
2018-May-19 04:57N 34°38' E 135°25'0 0.0
2018-May-19 04:20N 34°38' E 135°25'0 0.0
2018-May-19 03:56N 34°38' E 135°25'0 0.0
2018-May-19 03:27N 34°38' E 135°25'0 0.0
2018-May-19 02:45N 34°38' E 135°25'0 0.2
2018-May-19 02:27N 34°38' E 135°25'0 0.1
2018-May-19 01:57N 34°38' E 135°25'0 0.0
2018-May-19 01:20N 34°38' E 135°25'0 0.0
2018-May-19 00:56N 34°38' E 135°25'0 0.0
2018-May-19 00:27N 34°38' E 135°25'0 0.0
2018-May-18 23:56N 34°38' E 135°25'0 0.0
2018-May-18 23:26N 34°38' E 135°25'0 0.0
2018-May-18 22:56N 34°38' E 135°25'0 0.0
2018-May-18 22:30N 34°38' E 135°25'5 9.5
2018-May-18 22:00N 34°36' E 135°20'816.4
2018-May-18 21:30N 34°34' E 135°10'918.6
2018-May-18 21:00N 34°37' E 134°59'919.1
2018-May-18 20:30N 34°33' E 134°49'917.9
2018-May-18 20:00N 34°29' E 134°39'918.3
2018-May-18 19:30N 34°25' E 134°29'918.3
2018-May-18 19:00N 34°24' E 134°18'18 0.6
2018-May-17 13:59N 34°25' E 133°56'1316.7
2018-May-17 13:12N 34°25' E 134°12'420.1
2018-May-17 13:00N 34°24' E 134°16'1020.5
2018-May-17 12:31N 34°27' E 134°28'1020.6
2018-May-17 12:01N 34°31' E 134°40'1122.6
2018-May-17 11:31N 34°35' E 134°53'1121.2
2018-May-17 11:00N 34°36' E 135°05'1020.0
2018-May-17 10:30N 34°37' E 135°18'612.0
2018-May-17 10:00N 34°38' E 135°25'0 0.0
2018-May-17 09:28N 34°38' E 135°25'0 0.0
2018-May-17 08:58N 34°38' E 135°25'0 0.0
2018-May-17 08:10N 34°38' E 135°25'0 0.0
2018-May-17 07:58N 34°38' E 135°25'0 0.0
2018-May-17 07:28N 34°38' E 135°25'0 0.0
2018-May-17 06:52N 34°38' E 135°25'0 0.0
2018-May-17 06:28N 34°38' E 135°25'0 0.0
2018-May-17 05:55N 34°38' E 135°25'0 0.0
2018-May-17 05:10N 34°38' E 135°25'0 0.0
2018-May-17 04:58N 34°38' E 135°25'0 0.0
2018-May-17 04:28N 34°38' E 135°25'0 0.0
2018-May-17 03:58N 34°38' E 135°25'0 0.0
2018-May-17 03:28N 34°38' E 135°25'0 0.0
2018-May-17 02:58N 34°38' E 135°25'0 0.1
2018-May-17 02:28N 34°38' E 135°25'0 0.1
2018-May-17 01:58N 34°38' E 135°25'0 0.0
2018-May-17 01:28N 34°38' E 135°25'0 0.0
2018-May-17 00:52N 34°38' E 135°25'0 0.0
2018-May-17 00:28N 34°38' E 135°25'0 0.1
2018-May-16 23:58N 34°38' E 135°25'0 0.0
2018-May-16 23:28N 34°38' E 135°25'0 0.0
2018-May-16 22:58N 34°38' E 135°25'0 0.0
2018-May-16 22:04N 34°38' E 135°25'0 0.0
2018-May-16 21:58N 34°38' E 135°25'0 0.0
2018-May-16 21:29N 34°38' E 135°25'4 8.2
2018-May-16 21:00N 34°36' E 135°21'918.4
2018-May-16 20:30N 34°34' E 135°10'917.7
2018-May-16 20:00N 34°37' E 134°59'1019.4
2018-May-16 19:30N 34°33' E 134°49'1019.4
2018-May-16 19:00N 34°29' E 134°38'1120.5
2018-May-16 18:29N 34°25' E 134°26'1020.3
2018-May-16 18:00N 34°24' E 134°14'17 0.6
2018-May-15 14:17N 34°24' E 133°53'413.2
2018-May-15 13:59N 34°25' E 133°58'714.1
2018-May-15 13:30N 34°27' E 134°06'918.3
2018-May-15 13:00N 34°24' E 134°16'1020.7
2018-May-15 12:30N 34°27' E 134°28'1020.8
2018-May-15 12:00N 34°31' E 134°40'1122.6
2018-May-15 11:30N 34°36' E 134°52'1122.2
2018-May-15 11:00N 34°36' E 135°06'1020.3
2018-May-15 10:31N 34°37' E 135°18'611.3
2018-May-15 10:00N 34°38' E 135°25'0 0.0
2018-May-15 09:30N 34°38' E 135°25'0 0.0
2018-May-15 09:00N 34°38' E 135°25'0 0.0
2018-May-15 08:30N 34°38' E 135°25'0 0.0
2018-May-15 08:00N 34°38' E 135°25'0 0.0
2018-May-15 07:30N 34°38' E 135°25'0 0.0
2018-May-15 07:00N 34°38' E 135°25'0 0.0
2018-May-15 06:30N 34°38' E 135°25'0 0.0
2018-May-15 06:00N 34°38' E 135°25'0 0.0
2018-May-15 05:30N 34°38' E 135°25'1 1.8
2018-May-15 05:00N 34°38' E 135°24'2 3.4
2018-May-15 04:29N 34°37' E 135°22'0 0.1
2018-May-15 03:59N 34°37' E 135°22'0 0.1
2018-May-15 03:29N 34°37' E 135°22'0 0.0
2018-May-15 02:59N 34°37' E 135°22'0 0.0
2018-May-15 02:29N 34°37' E 135°22'0 0.0
2018-May-15 01:59N 34°37' E 135°22'0 0.0
2018-May-15 01:29N 34°37' E 135°22'0 0.0
2018-May-15 00:59N 34°37' E 135°22'0 0.1
2018-May-15 00:30N 34°37' E 135°22'3 5.4
2018-May-15 00:00N 34°38' E 135°25'0 0.0
2018-May-14 23:30N 34°38' E 135°25'0 0.0
2018-May-14 23:00N 34°38' E 135°25'0 0.0
2018-May-14 22:30N 34°38' E 135°25'0 0.0
2018-May-14 22:00N 34°38' E 135°25'0 0.0
2018-May-14 21:30N 34°38' E 135°25'3 6.7
2018-May-14 21:00N 34°37' E 135°21'919.1
2018-May-14 20:31N 34°35' E 135°10'1019.0
2018-May-14 20:00N 34°37' E 134°59'1019.9
2018-May-14 19:30N 34°33' E 134°48'1020.1
2018-May-14 19:00N 34°29' E 134°37'1020.7
2018-May-14 18:30N 34°25' E 134°25'1020.9
2018-May-14 18:00N 34°24' E 134°12'1217.0
2018-May-14 17:19N 34°25' E 133°58'4318.7
2018-May-14 15:03N 34°09' E 133°10'320.1
2018-May-14 14:54N 34°08' E 133°07'714.3
2018-May-14 14:26N 34°07' E 132°59'511.9
2018-May-14 13:59N 34°07' E 132°53'1020.9
2018-May-14 13:30N 33°59' E 132°45'1020.9
2018-May-14 13:00N 33°52' E 132°36'1121.0
2018-May-14 12:30N 33°46' E 132°25'1021.3
2018-May-14 12:00N 33°40' E 132°15'1121.3
2018-May-14 11:29N 33°34' E 132°04'1021.1
2018-May-14 11:00N 33°28' E 131°54'1121.3
2018-May-14 10:30N 33°21' E 131°44'919.2
2018-May-14 10:01N 33°18' E 131°33'2 0.2
2018-May-13 21:44N 33°18' E 131°30'2 9.0
2018-May-13 21:30N 33°19' E 131°33'1019.9
2018-May-13 21:00N 33°21' E 131°44'1019.4
2018-May-13 20:30N 33°27' E 131°53'1019.6
2018-May-13 19:59N 33°32' E 132°03'1020.2
2018-May-13 19:29N 33°38' E 132°13'1019.8
2018-May-13 18:58N 33°44' E 132°23'919.7
2018-May-13 18:30N 33°50' E 132°32'1020.1
2018-May-13 18:00N 33°57' E 132°41'7317.0
2018-May-13 13:44N 34°26' E 134°01'716.3
2018-May-13 13:20N 34°26' E 134°09'919.4
2018-May-13 12:53N 34°25' E 134°19'820.5
2018-May-13 12:30N 34°27' E 134°28'1020.8
2018-May-13 12:00N 34°31' E 134°40'1121.9
2018-May-13 11:31N 34°35' E 134°52'1121.2
2018-May-13 11:00N 34°36' E 135°05'1020.8
2018-May-13 10:30N 34°37' E 135°18'611.6
2018-May-13 10:00N 34°38' E 135°25'0 0.0
2018-May-13 09:27N 34°38' E 135°25'0 0.0
2018-May-13 09:00N 34°38' E 135°25'0 0.0
2018-May-13 08:30N 34°38' E 135°25'0 0.0
2018-May-13 08:00N 34°38' E 135°25'0 0.0
2018-May-13 07:30N 34°38' E 135°25'0 0.0
2018-May-13 07:00N 34°38' E 135°25'0 0.0
2018-May-13 06:30N 34°38' E 135°25'0 0.0
2018-May-13 06:00N 34°38' E 135°25'0 0.0
2018-May-13 05:30N 34°38' E 135°25'0 0.0
2018-May-13 05:00N 34°38' E 135°25'0 0.0
2018-May-13 04:27N 34°38' E 135°25'0 0.0
2018-May-13 04:00N 34°38' E 135°25'0 0.0
2018-May-13 03:30N 34°38' E 135°25'0 0.0
2018-May-13 02:57N 34°38' E 135°25'0 0.0
2018-May-13 02:30N 34°38' E 135°25'0 0.0
2018-May-13 02:00N 34°38' E 135°25'0 0.0
2018-May-13 01:30N 34°38' E 135°25'0 0.0
2018-May-13 01:00N 34°38' E 135°25'0 0.0
2018-May-13 00:27N 34°38' E 135°25'0 0.0
2018-May-13 00:00N 34°38' E 135°25'0 0.0
2018-May-12 23:30N 34°38' E 135°25'0 0.0
2018-May-12 23:00N 34°38' E 135°25'0 0.3
2018-May-12 22:30N 34°38' E 135°25'714.9
2018-May-12 22:00N 34°35' E 135°16'1019.8
2018-May-12 21:30N 34°35' E 135°04'  

Dump ship's entire track history